Sm Falcon — H3MW — position and weather

sailwx.info

Track history (hours):
 
Tides and Currents Weather Stations Pressure Air Temp Water Temp Dewpoint Dewpoint Depression Visibility Wind Speed Wind Dir Waves Ship Positions

Sm Falcon

Last reported at 2018-Feb-15 06:57 UTC. Time now 2018-Feb-18 05:34 UTC.
Position N 26°55' W 095°09'.

Length 182 m; draft 11.8 m.

Type: Tanker. MMSI: 352781000.

Date/timePositionNaut miles runAvg speedWind from/ knotsBaromVisibWave heightAir tempDewpointWater temp
2018-Feb-15 06:57N 26°55' W 095°09'2312.2
2018-Feb-15 05:04N 27°05' W 095°32'412.4
2018-Feb-15 04:45N 27°07' W 095°36'812.5
2018-Feb-15 04:09N 27°10' W 095°43'212.5
2018-Feb-15 04:00N 27°11' W 095°45'612.7
2018-Feb-15 03:31N 27°14' W 095°51'3213.0
2018-Feb-15 01:05N 27°28' W 096°23'413.5
2018-Feb-15 00:48N 27°30' W 096°27'413.3
2018-Feb-15 00:30N 27°32' W 096°31'713.2
2018-Feb-14 23:59N 27°35' W 096°37'613.2
2018-Feb-14 23:30N 27°38' W 096°44'713.1
2018-Feb-14 22:59N 27°42' W 096°50'613.0
2018-Feb-14 22:30N 27°46' W 096°56'612.4
2018-Feb-14 21:59N 27°50' W 097°02'4 8.0
2018-Feb-14 21:30N 27°50' W 097°06'5 9.8
2018-Feb-14 20:57N 27°49' W 097°12'510.0
2018-Feb-14 20:29N 27°49' W 097°17'510.6
2018-Feb-14 19:59N 27°49' W 097°23'3 0.1
2018-Feb-13 05:55N 27°49' W 097°26'0 0.0
2018-Feb-13 05:29N 27°49' W 097°26'0 0.7
2018-Feb-13 04:58N 27°49' W 097°27'1 2.3
2018-Feb-13 04:30N 27°49' W 097°25'4 7.3
2018-Feb-13 03:57N 27°49' W 097°21'611.4
2018-Feb-13 03:27N 27°49' W 097°14'511.2
2018-Feb-13 03:00N 27°50' W 097°09'610.4
2018-Feb-13 02:28N 27°50' W 097°03'511.2
2018-Feb-13 01:59N 27°48' W 096°57'4 7.4
2018-Feb-13 01:27N 27°48' W 096°53'0 0.7
2018-Feb-13 01:00N 27°47' W 096°52'0 0.0
2018-Feb-13 00:30N 27°47' W 096°52'0 0.0
2018-Feb-13 00:00N 27°47' W 096°52'0 0.0
2018-Feb-12 23:30N 27°47' W 096°52'0 0.0
2018-Feb-12 23:00N 27°47' W 096°52'0 0.0
2018-Feb-12 22:30N 27°47' W 096°52'0 0.0
2018-Feb-12 22:00N 27°47' W 096°52'0 0.0
2018-Feb-12 21:30N 27°47' W 096°52'0 0.0
2018-Feb-12 21:00N 27°47' W 096°52'0 0.0
2018-Feb-12 20:30N 27°47' W 096°52'0 0.0
2018-Feb-12 20:00N 27°47' W 096°52'0 0.0
2018-Feb-12 19:30N 27°47' W 096°52'0 0.0
2018-Feb-12 19:00N 27°47' W 096°52'0 0.0
2018-Feb-12 18:30N 27°47' W 096°52'0 0.0
2018-Feb-12 18:00N 27°47' W 096°52'0 0.0
2018-Feb-12 17:30N 27°47' W 096°52'0 0.0
2018-Feb-12 17:00N 27°47' W 096°52'0 0.0
2018-Feb-12 16:30N 27°47' W 096°52'0 0.0
2018-Feb-12 16:00N 27°47' W 096°52'0 0.0
2018-Feb-12 15:18N 27°47' W 096°52'0 0.1
2018-Feb-12 15:00N 27°47' W 096°52'0 0.0
2018-Feb-12 14:30N 27°47' W 096°52'0 0.0
2018-Feb-10 15:48N 27°47' W 096°52'0 0.0
2018-Feb-10 15:30N 27°47' W 096°52'0 0.0
2018-Feb-10 15:00N 27°47' W 096°52'0 0.0
2018-Feb-10 14:30N 27°47' W 096°52'  
2018-Feb-08 01:30N 27°47' W 096°52'0 0.0
2018-Feb-08 01:00N 27°47' W 096°52'0 0.0
2018-Feb-08 00:30N 27°47' W 096°52'0 0.0
2018-Feb-08 00:00N 27°47' W 096°52'0 0.0
2018-Feb-07 23:30N 27°47' W 096°52'0 0.0
2018-Feb-07 23:00N 27°47' W 096°52'0 0.0
2018-Feb-07 22:30N 27°47' W 096°52'0 0.0
2018-Feb-07 22:00N 27°47' W 096°52'0 0.0
2018-Feb-07 21:30N 27°47' W 096°52'0 0.0
2018-Feb-07 09:30N 27°47' W 096°52'0 0.0
2018-Feb-07 09:00N 27°47' W 096°52'0 0.0
2018-Feb-07 08:30N 27°47' W 096°52'0 0.0
2018-Feb-07 08:00N 27°47' W 096°52'0 0.0
2018-Feb-07 07:30N 27°47' W 096°52'0 0.0
2018-Feb-07 06:54N 27°47' W 096°52'0 0.0
2018-Feb-07 06:30N 27°47' W 096°52'0 0.0
2018-Feb-07 05:57N 27°47' W 096°52'0 0.0
2018-Feb-07 05:30N 27°47' W 096°52'0 0.0
2018-Feb-07 05:00N 27°47' W 096°52'0 0.0
2018-Feb-07 04:30N 27°47' W 096°52'0 0.0
2018-Feb-07 04:00N 27°47' W 096°52'0 0.0
2018-Feb-07 03:30N 27°47' W 096°52'0 0.0
2018-Feb-07 03:00N 27°47' W 096°52'0 0.0
2018-Feb-07 02:30N 27°47' W 096°52'0 0.0
2018-Feb-07 02:00N 27°47' W 096°52'0 0.1
2018-Feb-07 01:30N 27°48' W 096°52'0 0.1
2018-Feb-07 01:00N 27°47' W 096°52'0 0.1
2018-Feb-07 00:30N 27°47' W 096°52'0 0.0
2018-Feb-07 00:00N 27°47' W 096°52'0 0.0
2018-Feb-06 23:30N 27°47' W 096°52'0 0.0
2018-Feb-06 23:00N 27°47' W 096°52'0 0.0
2018-Feb-06 22:30N 27°47' W 096°52'0 0.0
2018-Feb-06 22:00N 27°47' W 096°52'0 0.0
2018-Feb-06 21:30N 27°47' W 096°52'0 0.0
2018-Feb-06 21:00N 27°47' W 096°52'0 0.0
2018-Feb-06 20:27N 27°47' W 096°52'0 0.0
2018-Feb-06 20:00N 27°47' W 096°52'0 0.0
2018-Feb-06 19:30N 27°47' W 096°52'0 0.0
2018-Feb-06 19:00N 27°47' W 096°52'0 0.0
2018-Feb-06 18:30N 27°47' W 096°52'0 0.0
2018-Feb-06 18:00N 27°47' W 096°52'0 0.0
2018-Feb-06 17:30N 27°47' W 096°52'0 0.1
2018-Feb-06 17:00N 27°47' W 096°52'0 0.0
2018-Feb-06 16:30N 27°47' W 096°52'0 0.0
2018-Feb-06 16:00N 27°47' W 096°52'0 0.0
2018-Feb-06 15:30N 27°47' W 096°52'0 0.0
2018-Feb-06 15:00N 27°47' W 096°52'0 0.0
2018-Feb-06 14:30N 27°47' W 096°52'0 0.0
2018-Feb-06 14:00N 27°47' W 096°52'0 0.0
2018-Feb-06 13:30N 27°47' W 096°52'0 0.0
2018-Feb-06 13:00N 27°47' W 096°52'0 0.0
2018-Feb-06 12:30N 27°47' W 096°52'1 1.4
2018-Feb-06 11:58N 27°47' W 096°52'6 9.7
2018-Feb-06 11:23N 27°43' W 096°47'512.2
2018-Feb-06 10:59N 27°41' W 096°42'4 7.1
2018-Feb-06 10:28N 27°39' W 096°39'612.4
2018-Feb-06 09:59N 27°37' W 096°33'712.7
2018-Feb-06 09:27N 27°34' W 096°26'712.4
2018-Feb-06 08:56N 27°35' W 096°18'512.2
2018-Feb-06 08:29N 27°35' W 096°12'912.4
2018-Feb-06 07:46N 27°36' W 096°02'612.5
2018-Feb-06 07:19N 27°36' W 095°56'512.6
2018-Feb-06 06:58N 27°37' W 095°51'612.7
2018-Feb-06 06:28N 27°37' W 095°44'712.9
2018-Feb-06 05:55N 27°38' W 095°36'613.0
2018-Feb-06 05:29N 27°38' W 095°29'  
Track history (hours):
 
Tides and Currents Weather Stations Pressure Air Temp Water Temp Dewpoint Dewpoint Depression Visibility Wind Speed Wind Dir Waves Ship Positions

Sm Falcon

Last reported at 2018-Feb-15 06:57 UTC. Time now 2018-Feb-18 05:34 UTC.
Position N 26°55' W 095°09'.

Length 182 m; draft 11.8 m.

Type: Tanker. MMSI: 352781000.

Date/timePositionNaut miles runAvg speedWind from/ knotsBaromVisibWave heightAir tempDewpointWater temp
2018-Feb-15 06:57N 26°55' W 095°09'2312.2
2018-Feb-15 05:04N 27°05' W 095°32'412.4
2018-Feb-15 04:45N 27°07' W 095°36'812.5
2018-Feb-15 04:09N 27°10' W 095°43'212.5
2018-Feb-15 04:00N 27°11' W 095°45'612.7
2018-Feb-15 03:31N 27°14' W 095°51'3213.0
2018-Feb-15 01:05N 27°28' W 096°23'413.5
2018-Feb-15 00:48N 27°30' W 096°27'413.3
2018-Feb-15 00:30N 27°32' W 096°31'713.2
2018-Feb-14 23:59N 27°35' W 096°37'613.2
2018-Feb-14 23:30N 27°38' W 096°44'713.1
2018-Feb-14 22:59N 27°42' W 096°50'613.0
2018-Feb-14 22:30N 27°46' W 096°56'612.4
2018-Feb-14 21:59N 27°50' W 097°02'4 8.0
2018-Feb-14 21:30N 27°50' W 097°06'5 9.8
2018-Feb-14 20:57N 27°49' W 097°12'510.0
2018-Feb-14 20:29N 27°49' W 097°17'510.6
2018-Feb-14 19:59N 27°49' W 097°23'3 0.1
2018-Feb-13 05:55N 27°49' W 097°26'0 0.0
2018-Feb-13 05:29N 27°49' W 097°26'0 0.7
2018-Feb-13 04:58N 27°49' W 097°27'1 2.3
2018-Feb-13 04:30N 27°49' W 097°25'4 7.3
2018-Feb-13 03:57N 27°49' W 097°21'611.4
2018-Feb-13 03:27N 27°49' W 097°14'511.2
2018-Feb-13 03:00N 27°50' W 097°09'610.4
2018-Feb-13 02:28N 27°50' W 097°03'511.2
2018-Feb-13 01:59N 27°48' W 096°57'4 7.4
2018-Feb-13 01:27N 27°48' W 096°53'0 0.7
2018-Feb-13 01:00N 27°47' W 096°52'0 0.0
2018-Feb-13 00:30N 27°47' W 096°52'0 0.0
2018-Feb-13 00:00N 27°47' W 096°52'0 0.0
2018-Feb-12 23:30N 27°47' W 096°52'0 0.0
2018-Feb-12 23:00N 27°47' W 096°52'0 0.0
2018-Feb-12 22:30N 27°47' W 096°52'0 0.0
2018-Feb-12 22:00N 27°47' W 096°52'0 0.0
2018-Feb-12 21:30N 27°47' W 096°52'0 0.0
2018-Feb-12 21:00N 27°47' W 096°52'0 0.0
2018-Feb-12 20:30N 27°47' W 096°52'0 0.0
2018-Feb-12 20:00N 27°47' W 096°52'0 0.0
2018-Feb-12 19:30N 27°47' W 096°52'0 0.0
2018-Feb-12 19:00N 27°47' W 096°52'0 0.0
2018-Feb-12 18:30N 27°47' W 096°52'0 0.0
2018-Feb-12 18:00N 27°47' W 096°52'0 0.0
2018-Feb-12 17:30N 27°47' W 096°52'0 0.0
2018-Feb-12 17:00N 27°47' W 096°52'0 0.0
2018-Feb-12 16:30N 27°47' W 096°52'0 0.0
2018-Feb-12 16:00N 27°47' W 096°52'0 0.0
2018-Feb-12 15:18N 27°47' W 096°52'0 0.1
2018-Feb-12 15:00N 27°47' W 096°52'0 0.0
2018-Feb-12 14:30N 27°47' W 096°52'0 0.0
2018-Feb-10 15:48N 27°47' W 096°52'0 0.0
2018-Feb-10 15:30N 27°47' W 096°52'0 0.0
2018-Feb-10 15:00N 27°47' W 096°52'0 0.0
2018-Feb-10 14:30N 27°47' W 096°52'  
2018-Feb-08 01:30N 27°47' W 096°52'0 0.0
2018-Feb-08 01:00N 27°47' W 096°52'0 0.0
2018-Feb-08 00:30N 27°47' W 096°52'0 0.0
2018-Feb-08 00:00N 27°47' W 096°52'0 0.0
2018-Feb-07 23:30N 27°47' W 096°52'0 0.0
2018-Feb-07 23:00N 27°47' W 096°52'0 0.0
2018-Feb-07 22:30N 27°47' W 096°52'0 0.0
2018-Feb-07 22:00N 27°47' W 096°52'0 0.0
2018-Feb-07 21:30N 27°47' W 096°52'0 0.0
2018-Feb-07 09:30N 27°47' W 096°52'0 0.0
2018-Feb-07 09:00N 27°47' W 096°52'0 0.0
2018-Feb-07 08:30N 27°47' W 096°52'0 0.0
2018-Feb-07 08:00N 27°47' W 096°52'0 0.0
2018-Feb-07 07:30N 27°47' W 096°52'0 0.0
2018-Feb-07 06:54N 27°47' W 096°52'0 0.0
2018-Feb-07 06:30N 27°47' W 096°52'0 0.0
2018-Feb-07 05:57N 27°47' W 096°52'0 0.0
2018-Feb-07 05:30N 27°47' W 096°52'0 0.0
2018-Feb-07 05:00N 27°47' W 096°52'0 0.0
2018-Feb-07 04:30N 27°47' W 096°52'0 0.0
2018-Feb-07 04:00N 27°47' W 096°52'0 0.0
2018-Feb-07 03:30N 27°47' W 096°52'0 0.0
2018-Feb-07 03:00N 27°47' W 096°52'0 0.0
2018-Feb-07 02:30N 27°47' W 096°52'0 0.0
2018-Feb-07 02:00N 27°47' W 096°52'0 0.1
2018-Feb-07 01:30N 27°48' W 096°52'0 0.1
2018-Feb-07 01:00N 27°47' W 096°52'0 0.1
2018-Feb-07 00:30N 27°47' W 096°52'0 0.0
2018-Feb-07 00:00N 27°47' W 096°52'0 0.0
2018-Feb-06 23:30N 27°47' W 096°52'0 0.0
2018-Feb-06 23:00N 27°47' W 096°52'0 0.0
2018-Feb-06 22:30N 27°47' W 096°52'0 0.0
2018-Feb-06 22:00N 27°47' W 096°52'0 0.0
2018-Feb-06 21:30N 27°47' W 096°52'0 0.0
2018-Feb-06 21:00N 27°47' W 096°52'0 0.0
2018-Feb-06 20:27N 27°47' W 096°52'0 0.0
2018-Feb-06 20:00N 27°47' W 096°52'0 0.0
2018-Feb-06 19:30N 27°47' W 096°52'0 0.0
2018-Feb-06 19:00N 27°47' W 096°52'0 0.0
2018-Feb-06 18:30N 27°47' W 096°52'0 0.0
2018-Feb-06 18:00N 27°47' W 096°52'0 0.0
2018-Feb-06 17:30N 27°47' W 096°52'0 0.1
2018-Feb-06 17:00N 27°47' W 096°52'0 0.0
2018-Feb-06 16:30N 27°47' W 096°52'0 0.0
2018-Feb-06 16:00N 27°47' W 096°52'0 0.0
2018-Feb-06 15:30N 27°47' W 096°52'0 0.0
2018-Feb-06 15:00N 27°47' W 096°52'0 0.0
2018-Feb-06 14:30N 27°47' W 096°52'0 0.0
2018-Feb-06 14:00N 27°47' W 096°52'0 0.0
2018-Feb-06 13:30N 27°47' W 096°52'0 0.0
2018-Feb-06 13:00N 27°47' W 096°52'0 0.0
2018-Feb-06 12:30N 27°47' W 096°52'1 1.4
2018-Feb-06 11:58N 27°47' W 096°52'6 9.7
2018-Feb-06 11:23N 27°43' W 096°47'512.2
2018-Feb-06 10:59N 27°41' W 096°42'4 7.1
2018-Feb-06 10:28N 27°39' W 096°39'612.4
2018-Feb-06 09:59N 27°37' W 096°33'712.7
2018-Feb-06 09:27N 27°34' W 096°26'712.4
2018-Feb-06 08:56N 27°35' W 096°18'512.2
2018-Feb-06 08:29N 27°35' W 096°12'912.4
2018-Feb-06 07:46N 27°36' W 096°02'612.5
2018-Feb-06 07:19N 27°36' W 095°56'512.6
2018-Feb-06 06:58N 27°37' W 095°51'612.7
2018-Feb-06 06:28N 27°37' W 095°44'712.9
2018-Feb-06 05:55N 27°38' W 095°36'613.0
2018-Feb-06 05:29N 27°38' W 095°29'  

Dump ship's entire track history